sensor_id;sensor_type;location;lat;lon;timestamp;temperature;humidity
12060;DHT22;6091;51.432;6.880;2023-07-31T00:00:26;27.40;45.90
12060;DHT22;6091;51.432;6.880;2023-07-31T00:02:54;27.50;45.90
12060;DHT22;6091;51.432;6.880;2023-07-31T00:05:23;27.40;45.90
12060;DHT22;6091;51.432;6.880;2023-07-31T00:07:50;27.30;45.80
12060;DHT22;6091;51.432;6.880;2023-07-31T00:10:18;27.40;45.90
12060;DHT22;6091;51.432;6.880;2023-07-31T00:12:45;27.40;45.90
12060;DHT22;6091;51.432;6.880;2023-07-31T00:15:15;27.40;45.90
12060;DHT22;6091;51.432;6.880;2023-07-31T00:17:42;27.40;46.00
12060;DHT22;6091;51.432;6.880;2023-07-31T00:20:10;27.40;45.90
12060;DHT22;6091;51.432;6.880;2023-07-31T00:22:37;27.40;46.00
12060;DHT22;6091;51.432;6.880;2023-07-31T00:25:05;27.40;46.00
12060;DHT22;6091;51.432;6.880;2023-07-31T00:27:33;27.40;46.00
12060;DHT22;6091;51.432;6.880;2023-07-31T00:30:00;27.40;46.00
12060;DHT22;6091;51.432;6.880;2023-07-31T00:32:27;27.40;46.00
12060;DHT22;6091;51.432;6.880;2023-07-31T00:34:54;27.40;46.00
12060;DHT22;6091;51.432;6.880;2023-07-31T00:37:21;27.40;46.40
12060;DHT22;6091;51.432;6.880;2023-07-31T00:39:48;27.40;46.00
12060;DHT22;6091;51.432;6.880;2023-07-31T00:42:15;27.40;46.00
12060;DHT22;6091;51.432;6.880;2023-07-31T00:44:42;27.40;46.10
12060;DHT22;6091;51.432;6.880;2023-07-31T00:47:09;27.30;46.00
12060;DHT22;6091;51.432;6.880;2023-07-31T00:49:37;27.40;46.10
12060;DHT22;6091;51.432;6.880;2023-07-31T00:52:05;27.40;46.10
12060;DHT22;6091;51.432;6.880;2023-07-31T00:54:33;27.40;46.10
12060;DHT22;6091;51.432;6.880;2023-07-31T00:57:00;27.40;46.20
12060;DHT22;6091;51.432;6.880;2023-07-31T00:59:28;27.40;46.20
12060;DHT22;6091;51.432;6.880;2023-07-31T01:01:55;27.30;46.10
12060;DHT22;6091;51.432;6.880;2023-07-31T01:04:22;27.40;46.20
12060;DHT22;6091;51.432;6.880;2023-07-31T01:07:01;27.70;46.40
12060;DHT22;6091;51.432;6.880;2023-07-31T01:12:34;27.40;46.20
12060;DHT22;6091;51.432;6.880;2023-07-31T01:15:06;27.40;46.20
12060;DHT22;6091;51.432;6.880;2023-07-31T01:17:38;27.40;46.20
12060;DHT22;6091;51.432;6.880;2023-07-31T01:20:10;27.40;46.20
12060;DHT22;6091;51.432;6.880;2023-07-31T01:26:12;27.40;46.40
12060;DHT22;6091;51.432;6.880;2023-07-31T01:31:22;27.40;46.30
12060;DHT22;6091;51.432;6.880;2023-07-31T01:33:53;27.30;46.20
12060;DHT22;6091;51.432;6.880;2023-07-31T01:36:23;27.30;46.30
12060;DHT22;6091;51.432;6.880;2023-07-31T01:38:50;27.30;46.20
12060;DHT22;6091;51.432;6.880;2023-07-31T01:41:18;27.30;46.30
12060;DHT22;6091;51.432;6.880;2023-07-31T01:43:46;27.30;46.30
12060;DHT22;6091;51.432;6.880;2023-07-31T01:46:13;27.30;46.30
12060;DHT22;6091;51.432;6.880;2023-07-31T01:48:40;27.30;46.30
12060;DHT22;6091;51.432;6.880;2023-07-31T01:51:07;27.30;46.30
12060;DHT22;6091;51.432;6.880;2023-07-31T01:53:34;27.30;46.30
12060;DHT22;6091;51.432;6.880;2023-07-31T01:56:02;27.30;46.30
12060;DHT22;6091;51.432;6.880;2023-07-31T01:58:29;27.30;46.30
12060;DHT22;6091;51.432;6.880;2023-07-31T02:00:56;27.30;46.40
12060;DHT22;6091;51.432;6.880;2023-07-31T02:03:23;27.30;46.30
12060;DHT22;6091;51.432;6.880;2023-07-31T02:05:50;27.30;46.30
12060;DHT22;6091;51.432;6.880;2023-07-31T02:08:17;27.30;46.40
12060;DHT22;6091;51.432;6.880;2023-07-31T02:10:44;27.30;46.40
12060;DHT22;6091;51.432;6.880;2023-07-31T02:13:13;27.30;46.40
12060;DHT22;6091;51.432;6.880;2023-07-31T02:15:40;27.30;46.40
12060;DHT22;6091;51.432;6.880;2023-07-31T02:18:07;27.30;46.40
12060;DHT22;6091;51.432;6.880;2023-07-31T02:20:34;27.30;46.40
12060;DHT22;6091;51.432;6.880;2023-07-31T02:23:02;27.30;46.40
12060;DHT22;6091;51.432;6.880;2023-07-31T02:25:29;27.30;46.50
12060;DHT22;6091;51.432;6.880;2023-07-31T02:27:56;27.30;46.40
12060;DHT22;6091;51.432;6.880;2023-07-31T02:30:23;27.30;46.40
12060;DHT22;6091;51.432;6.880;2023-07-31T02:32:50;27.30;46.50
12060;DHT22;6091;51.432;6.880;2023-07-31T02:35:17;27.30;46.50
12060;DHT22;6091;51.432;6.880;2023-07-31T02:37:45;27.30;46.50
12060;DHT22;6091;51.432;6.880;2023-07-31T02:40:12;27.30;46.50
12060;DHT22;6091;51.432;6.880;2023-07-31T02:42:39;27.30;46.60
12060;DHT22;6091;51.432;6.880;2023-07-31T02:45:07;27.30;46.50
12060;DHT22;6091;51.432;6.880;2023-07-31T02:47:34;27.30;46.50
12060;DHT22;6091;51.432;6.880;2023-07-31T02:50:03;27.30;46.50
12060;DHT22;6091;51.432;6.880;2023-07-31T02:52:30;27.30;46.50
12060;DHT22;6091;51.432;6.880;2023-07-31T02:54:58;27.30;46.50
12060;DHT22;6091;51.432;6.880;2023-07-31T02:57:25;27.30;46.60
12060;DHT22;6091;51.432;6.880;2023-07-31T02:59:52;27.30;46.50
12060;DHT22;6091;51.432;6.880;2023-07-31T03:02:19;27.30;46.60
12060;DHT22;6091;51.432;6.880;2023-07-31T03:04:47;27.30;46.60
12060;DHT22;6091;51.432;6.880;2023-07-31T03:07:14;27.30;46.50
12060;DHT22;6091;51.432;6.880;2023-07-31T03:09:41;27.30;46.60
12060;DHT22;6091;51.432;6.880;2023-07-31T03:12:08;27.30;46.60
12060;DHT22;6091;51.432;6.880;2023-07-31T03:14:35;27.30;46.60
12060;DHT22;6091;51.432;6.880;2023-07-31T03:17:03;27.20;46.50
12060;DHT22;6091;51.432;6.880;2023-07-31T03:19:31;27.30;46.60
12060;DHT22;6091;51.432;6.880;2023-07-31T03:21:59;27.30;46.60
12060;DHT22;6091;51.432;6.880;2023-07-31T03:24:27;27.30;46.60
12060;DHT22;6091;51.432;6.880;2023-07-31T03:26:55;27.30;46.60
12060;DHT22;6091;51.432;6.880;2023-07-31T03:29:22;27.20;46.50
12060;DHT22;6091;51.432;6.880;2023-07-31T03:31:50;27.30;46.60
12060;DHT22;6091;51.432;6.880;2023-07-31T03:34:17;27.20;46.50
12060;DHT22;6091;51.432;6.880;2023-07-31T03:36:44;27.20;46.60
12060;DHT22;6091;51.432;6.880;2023-07-31T03:39:12;27.20;46.60
12060;DHT22;6091;51.432;6.880;2023-07-31T03:41:39;27.30;46.70
12060;DHT22;6091;51.432;6.880;2023-07-31T03:44:06;27.30;46.60
12060;DHT22;6091;51.432;6.880;2023-07-31T03:46:33;27.20;46.60
12060;DHT22;6091;51.432;6.880;2023-07-31T03:49:01;27.30;46.70
12060;DHT22;6091;51.432;6.880;2023-07-31T03:51:28;27.20;46.60
12060;DHT22;6091;51.432;6.880;2023-07-31T03:53:55;27.20;46.60
12060;DHT22;6091;51.432;6.880;2023-07-31T03:56:23;27.20;46.60
12060;DHT22;6091;51.432;6.880;2023-07-31T03:58:50;27.30;46.70
12060;DHT22;6091;51.432;6.880;2023-07-31T04:01:18;27.20;46.70
12060;DHT22;6091;51.432;6.880;2023-07-31T04:03:46;27.20;46.70
12060;DHT22;6091;51.432;6.880;2023-07-31T04:06:13;27.20;46.70
12060;DHT22;6091;51.432;6.880;2023-07-31T04:08:44;27.20;46.70
12060;DHT22;6091;51.432;6.880;2023-07-31T04:11:12;27.20;46.70
12060;DHT22;6091;51.432;6.880;2023-07-31T04:13:39;27.20;46.70
12060;DHT22;6091;51.432;6.880;2023-07-31T04:16:06;27.20;46.70
12060;DHT22;6091;51.432;6.880;2023-07-31T04:18:33;27.20;46.70
12060;DHT22;6091;51.432;6.880;2023-07-31T04:21:00;27.30;46.80
12060;DHT22;6091;51.432;6.880;2023-07-31T04:23:28;27.20;46.70
12060;DHT22;6091;51.432;6.880;2023-07-31T04:25:56;27.20;46.70
12060;DHT22;6091;51.432;6.880;2023-07-31T04:28:25;27.20;46.70
12060;DHT22;6091;51.432;6.880;2023-07-31T04:30:53;27.30;46.70
12060;DHT22;6091;51.432;6.880;2023-07-31T04:33:20;27.20;47.30
12060;DHT22;6091;51.432;6.880;2023-07-31T04:35:51;27.20;46.70
12060;DHT22;6091;51.432;6.880;2023-07-31T04:38:20;27.20;46.80
12060;DHT22;6091;51.432;6.880;2023-07-31T04:40:48;27.20;46.70
12060;DHT22;6091;51.432;6.880;2023-07-31T04:43:15;27.20;46.70
12060;DHT22;6091;51.432;6.880;2023-07-31T04:45:45;27.20;46.70
12060;DHT22;6091;51.432;6.880;2023-07-31T04:48:14;27.20;46.80
12060;DHT22;6091;51.432;6.880;2023-07-31T04:50:41;27.30;46.80
12060;DHT22;6091;51.432;6.880;2023-07-31T04:53:09;27.30;46.80
12060;DHT22;6091;51.432;6.880;2023-07-31T04:55:36;27.20;46.80
12060;DHT22;6091;51.432;6.880;2023-07-31T04:58:03;27.20;46.80
12060;DHT22;6091;51.432;6.880;2023-07-31T05:00:30;27.20;46.80
12060;DHT22;6091;51.432;6.880;2023-07-31T05:02:57;27.20;46.80
12060;DHT22;6091;51.432;6.880;2023-07-31T05:05:24;27.20;46.70
12060;DHT22;6091;51.432;6.880;2023-07-31T05:07:51;27.20;46.70
12060;DHT22;6091;51.432;6.880;2023-07-31T05:10:18;27.20;46.80
12060;DHT22;6091;51.432;6.880;2023-07-31T05:12:45;27.20;46.80
12060;DHT22;6091;51.432;6.880;2023-07-31T05:15:12;27.30;46.90
12060;DHT22;6091;51.432;6.880;2023-07-31T05:17:42;27.20;46.80
12060;DHT22;6091;51.432;6.880;2023-07-31T05:20:09;27.20;46.80
12060;DHT22;6091;51.432;6.880;2023-07-31T05:22:37;27.30;46.90
12060;DHT22;6091;51.432;6.880;2023-07-31T05:25:04;27.30;47.00
12060;DHT22;6091;51.432;6.880;2023-07-31T05:27:32;27.20;47.00
12060;DHT22;6091;51.432;6.880;2023-07-31T05:29:59;27.20;47.10
12060;DHT22;6091;51.432;6.880;2023-07-31T05:32:26;27.20;47.10
12060;DHT22;6091;51.432;6.880;2023-07-31T05:34:54;27.30;47.20
12060;DHT22;6091;51.432;6.880;2023-07-31T05:37:21;27.30;47.20
12060;DHT22;6091;51.432;6.880;2023-07-31T05:39:49;27.30;47.30
12060;DHT22;6091;51.432;6.880;2023-07-31T05:42:16;27.30;47.30
12060;DHT22;6091;51.432;6.880;2023-07-31T05:44:43;27.70;47.50
12060;DHT22;6091;51.432;6.880;2023-07-31T05:47:10;27.30;47.30
12060;DHT22;6091;51.432;6.880;2023-07-31T05:49:37;27.30;47.30
12060;DHT22;6091;51.432;6.880;2023-07-31T05:52:04;27.30;47.40
12060;DHT22;6091;51.432;6.880;2023-07-31T05:54:32;27.30;47.40
12060;DHT22;6091;51.432;6.880;2023-07-31T05:56:59;27.40;47.50
12060;DHT22;6091;51.432;6.880;2023-07-31T05:59:27;27.30;47.40
12060;DHT22;6091;51.432;6.880;2023-07-31T06:01:54;27.30;47.40
12060;DHT22;6091;51.432;6.880;2023-07-31T06:04:21;27.40;47.50
12060;DHT22;6091;51.432;6.880;2023-07-31T06:06:51;27.40;47.50
12060;DHT22;6091;51.432;6.880;2023-07-31T06:09:18;27.40;47.60
12060;DHT22;6091;51.432;6.880;2023-07-31T06:11:46;27.40;47.60
12060;DHT22;6091;51.432;6.880;2023-07-31T06:14:14;27.40;47.60
12060;DHT22;6091;51.432;6.880;2023-07-31T06:16:41;27.40;47.60
12060;DHT22;6091;51.432;6.880;2023-07-31T06:19:08;27.40;47.60
12060;DHT22;6091;51.432;6.880;2023-07-31T06:21:36;27.40;47.60
12060;DHT22;6091;51.432;6.880;2023-07-31T06:24:08;27.50;47.60
12060;DHT22;6091;51.432;6.880;2023-07-31T06:26:35;27.50;47.60
12060;DHT22;6091;51.432;6.880;2023-07-31T06:29:03;27.40;47.70
12060;DHT22;6091;51.432;6.880;2023-07-31T06:31:30;27.40;47.60
12060;DHT22;6091;51.432;6.880;2023-07-31T06:33:57;27.50;47.60
12060;DHT22;6091;51.432;6.880;2023-07-31T06:36:24;27.50;47.60
12060;DHT22;6091;51.432;6.880;2023-07-31T06:38:51;27.50;47.60
12060;DHT22;6091;51.432;6.880;2023-07-31T06:41:18;27.50;47.70
12060;DHT22;6091;51.432;6.880;2023-07-31T06:43:45;27.50;47.60
12060;DHT22;6091;51.432;6.880;2023-07-31T06:46:12;27.50;47.60
12060;DHT22;6091;51.432;6.880;2023-07-31T06:48:40;27.50;47.60
12060;DHT22;6091;51.432;6.880;2023-07-31T06:51:07;27.60;47.70
12060;DHT22;6091;51.432;6.880;2023-07-31T06:53:34;27.50;47.60
12060;DHT22;6091;51.432;6.880;2023-07-31T06:56:01;27.60;47.70
12060;DHT22;6091;51.432;6.880;2023-07-31T06:58:28;27.60;47.70
12060;DHT22;6091;51.432;6.880;2023-07-31T07:00:55;27.60;47.70
12060;DHT22;6091;51.432;6.880;2023-07-31T07:03:23;27.50;47.70
12060;DHT22;6091;51.432;6.880;2023-07-31T07:05:50;27.60;47.50
12060;DHT22;6091;51.432;6.880;2023-07-31T07:08:17;27.50;47.70
12060;DHT22;6091;51.432;6.880;2023-07-31T07:10:44;27.60;47.80
12060;DHT22;6091;51.432;6.880;2023-07-31T07:13:13;27.60;47.70
12060;DHT22;6091;51.432;6.880;2023-07-31T07:15:40;27.90;48.10
12060;DHT22;6091;51.432;6.880;2023-07-31T07:18:08;27.60;47.90
12060;DHT22;6091;51.432;6.880;2023-07-31T07:20:37;27.60;47.90
12060;DHT22;6091;51.432;6.880;2023-07-31T07:23:04;27.60;48.00
12060;DHT22;6091;51.432;6.880;2023-07-31T07:25:32;27.60;47.90
12060;DHT22;6091;51.432;6.880;2023-07-31T07:28:19;27.70;48.10
12060;DHT22;6091;51.432;6.880;2023-07-31T07:30:51;27.70;48.00
12060;DHT22;6091;51.432;6.880;2023-07-31T07:33:25;27.70;48.10
12060;DHT22;6091;51.432;6.880;2023-07-31T07:36:05;27.70;48.10
12060;DHT22;6091;51.432;6.880;2023-07-31T07:38:36;27.70;48.00
12060;DHT22;6091;51.432;6.880;2023-07-31T07:41:04;27.70;48.00
12060;DHT22;6091;51.432;6.880;2023-07-31T07:43:31;27.70;48.10
12060;DHT22;6091;51.432;6.880;2023-07-31T07:45:58;27.70;48.10
12060;DHT22;6091;51.432;6.880;2023-07-31T07:48:25;27.70;48.10
12060;DHT22;6091;51.432;6.880;2023-07-31T07:50:52;27.70;48.10
12060;DHT22;6091;51.432;6.880;2023-07-31T07:53:19;27.70;48.20
12060;DHT22;6091;51.432;6.880;2023-07-31T07:55:46;27.70;48.10
12060;DHT22;6091;51.432;6.880;2023-07-31T07:58:15;27.70;48.10
12060;DHT22;6091;51.432;6.880;2023-07-31T08:00:48;27.70;48.00
12060;DHT22;6091;51.432;6.880;2023-07-31T08:03:17;27.70;48.20
12060;DHT22;6091;51.432;6.880;2023-07-31T08:05:45;27.80;48.10
12060;DHT22;6091;51.432;6.880;2023-07-31T08:08:15;27.80;48.10
12060;DHT22;6091;51.432;6.880;2023-07-31T08:10:46;27.80;48.10
12060;DHT22;6091;51.432;6.880;2023-07-31T08:13:13;27.70;48.20
12060;DHT22;6091;51.432;6.880;2023-07-31T08:15:42;27.80;48.10
12060;DHT22;6091;51.432;6.880;2023-07-31T08:18:13;27.80;48.20
12060;DHT22;6091;51.432;6.880;2023-07-31T08:20:40;27.90;48.30
12060;DHT22;6091;51.432;6.880;2023-07-31T08:23:08;27.80;48.20
12060;DHT22;6091;51.432;6.880;2023-07-31T08:25:35;27.80;49.00
12060;DHT22;6091;51.432;6.880;2023-07-31T08:28:05;27.80;49.00
12060;DHT22;6091;51.432;6.880;2023-07-31T08:30:36;27.80;48.20
12060;DHT22;6091;51.432;6.880;2023-07-31T08:33:13;27.70;48.50
12060;DHT22;6091;51.432;6.880;2023-07-31T08:35:40;27.80;48.70
12060;DHT22;6091;51.432;6.880;2023-07-31T08:38:07;27.80;48.40
12060;DHT22;6091;51.432;6.880;2023-07-31T08:40:37;27.80;48.20
12060;DHT22;6091;51.432;6.880;2023-07-31T08:43:09;27.90;48.20
12060;DHT22;6091;51.432;6.880;2023-07-31T08:45:36;28.00;48.20
12060;DHT22;6091;51.432;6.880;2023-07-31T08:48:03;27.90;48.20
12060;DHT22;6091;51.432;6.880;2023-07-31T08:50:31;27.90;48.20
12060;DHT22;6091;51.432;6.880;2023-07-31T08:53:00;27.90;48.30
12060;DHT22;6091;51.432;6.880;2023-07-31T08:55:28;28.00;48.40
12060;DHT22;6091;51.432;6.880;2023-07-31T08:57:56;27.90;48.10
12060;DHT22;6091;51.432;6.880;2023-07-31T09:00:24;27.90;48.10
12060;DHT22;6091;51.432;6.880;2023-07-31T09:05:31;27.90;48.10
12060;DHT22;6091;51.432;6.880;2023-07-31T09:07:58;28.00;48.10
12060;DHT22;6091;51.432;6.880;2023-07-31T09:10:31;28.00;48.10
12060;DHT22;6091;51.432;6.880;2023-07-31T09:12:58;26.60;47.10
12060;DHT22;6091;51.432;6.880;2023-07-31T09:15:27;28.00;48.20
12060;DHT22;6091;51.432;6.880;2023-07-31T09:18:05;28.00;48.10
12060;DHT22;6091;51.432;6.880;2023-07-31T09:20:33;28.00;48.10
12060;DHT22;6091;51.432;6.880;2023-07-31T09:23:12;28.00;48.00
12060;DHT22;6091;51.432;6.880;2023-07-31T09:25:43;28.10;48.20
12060;DHT22;6091;51.432;6.880;2023-07-31T09:28:13;28.00;48.20
12060;DHT22;6091;51.432;6.880;2023-07-31T09:30:50;28.00;48.20
12060;DHT22;6091;51.432;6.880;2023-07-31T09:33:19;28.00;48.20
12060;DHT22;6091;51.432;6.880;2023-07-31T09:35:49;28.00;48.10
12060;DHT22;6091;51.432;6.880;2023-07-31T09:38:17;28.00;48.10
12060;DHT22;6091;51.432;6.880;2023-07-31T09:40:49;27.90;48.40
12060;DHT22;6091;51.432;6.880;2023-07-31T09:43:20;27.90;48.40
12060;DHT22;6091;51.432;6.880;2023-07-31T09:45:48;28.00;48.30
12060;DHT22;6091;51.432;6.880;2023-07-31T09:48:24;28.00;48.30
12060;DHT22;6091;51.432;6.880;2023-07-31T09:50:54;28.00;48.20
12060;DHT22;6091;51.432;6.880;2023-07-31T09:53:28;28.00;48.10
12060;DHT22;6091;51.432;6.880;2023-07-31T09:55:58;28.00;48.20
12060;DHT22;6091;51.432;6.880;2023-07-31T09:58:28;28.00;48.10
12060;DHT22;6091;51.432;6.880;2023-07-31T10:00:58;28.00;48.20
12060;DHT22;6091;51.432;6.880;2023-07-31T10:03:27;28.00;48.20
12060;DHT22;6091;51.432;6.880;2023-07-31T10:05:57;28.00;48.10
12060;DHT22;6091;51.432;6.880;2023-07-31T10:08:30;28.00;48.10
12060;DHT22;6091;51.432;6.880;2023-07-31T10:11:02;28.00;48.10
12060;DHT22;6091;51.432;6.880;2023-07-31T10:13:31;28.10;48.10
12060;DHT22;6091;51.432;6.880;2023-07-31T10:16:02;28.00;48.10
12060;DHT22;6091;51.432;6.880;2023-07-31T10:18:30;28.00;48.00
12060;DHT22;6091;51.432;6.880;2023-07-31T10:20:58;28.10;48.90
12060;DHT22;6091;51.432;6.880;2023-07-31T10:23:27;27.90;48.00
12060;DHT22;6091;51.432;6.880;2023-07-31T10:25:57;28.00;48.10
12060;DHT22;6091;51.432;6.880;2023-07-31T10:28:29;28.00;48.70
12060;DHT22;6091;51.432;6.880;2023-07-31T10:31:04;28.00;48.10
12060;DHT22;6091;51.432;6.880;2023-07-31T10:33:33;28.00;48.00
12060;DHT22;6091;51.432;6.880;2023-07-31T10:36:20;28.00;48.00
12060;DHT22;6091;51.432;6.880;2023-07-31T10:38:59;28.00;48.00
12060;DHT22;6091;51.432;6.880;2023-07-31T10:41:30;28.00;48.00
12060;DHT22;6091;51.432;6.880;2023-07-31T10:44:02;28.00;48.00
12060;DHT22;6091;51.432;6.880;2023-07-31T10:46:36;27.90;48.00
12060;DHT22;6091;51.432;6.880;2023-07-31T10:49:04;28.00;48.00
12060;DHT22;6091;51.432;6.880;2023-07-31T10:51:35;27.90;47.90
12060;DHT22;6091;51.432;6.880;2023-07-31T10:54:13;27.90;47.90
12060;DHT22;6091;51.432;6.880;2023-07-31T10:56:45;27.90;48.00
12060;DHT22;6091;51.432;6.880;2023-07-31T10:59:14;28.00;48.00
12060;DHT22;6091;51.432;6.880;2023-07-31T11:01:55;27.90;48.00
12060;DHT22;6091;51.432;6.880;2023-07-31T11:04:29;27.90;48.00
12060;DHT22;6091;51.432;6.880;2023-07-31T11:07:00;27.90;48.00
12060;DHT22;6091;51.432;6.880;2023-07-31T11:09:30;28.00;48.00
12060;DHT22;6091;51.432;6.880;2023-07-31T11:12:00;27.90;48.00
12060;DHT22;6091;51.432;6.880;2023-07-31T11:14:27;27.90;47.90
12060;DHT22;6091;51.432;6.880;2023-07-31T11:16:54;27.90;47.90
12060;DHT22;6091;51.432;6.880;2023-07-31T11:19:23;27.90;48.10
12060;DHT22;6091;51.432;6.880;2023-07-31T11:21:52;27.90;47.90
12060;DHT22;6091;51.432;6.880;2023-07-31T11:24:22;28.00;47.90
12060;DHT22;6091;51.432;6.880;2023-07-31T11:26:51;27.90;47.90
12060;DHT22;6091;51.432;6.880;2023-07-31T11:29:19;27.90;47.80
12060;DHT22;6091;51.432;6.880;2023-07-31T11:31:47;28.00;47.90
12060;DHT22;6091;51.432;6.880;2023-07-31T11:34:16;28.00;47.90
12060;DHT22;6091;51.432;6.880;2023-07-31T11:36:54;28.00;47.90
12060;DHT22;6091;51.432;6.880;2023-07-31T11:39:25;28.00;47.90
12060;DHT22;6091;51.432;6.880;2023-07-31T11:41:59;28.00;47.90
12060;DHT22;6091;51.432;6.880;2023-07-31T11:44:38;28.00;47.80
12060;DHT22;6091;51.432;6.880;2023-07-31T11:47:06;28.00;47.80
12060;DHT22;6091;51.432;6.880;2023-07-31T11:49:36;28.00;47.80
12060;DHT22;6091;51.432;6.880;2023-07-31T11:52:04;28.00;47.80
12060;DHT22;6091;51.432;6.880;2023-07-31T11:54:32;27.90;47.70
12060;DHT22;6091;51.432;6.880;2023-07-31T11:56:59;27.70;47.60
12060;DHT22;6091;51.432;6.880;2023-07-31T11:59:28;28.10;47.80
12060;DHT22;6091;51.432;6.880;2023-07-31T12:01:58;28.00;47.70
12060;DHT22;6091;51.432;6.880;2023-07-31T12:04:25;28.00;47.70
12060;DHT22;6091;51.432;6.880;2023-07-31T12:06:53;28.00;47.70
12060;DHT22;6091;51.432;6.880;2023-07-31T12:09:24;28.00;47.70
12060;DHT22;6091;51.432;6.880;2023-07-31T12:11:53;28.00;47.70
12060;DHT22;6091;51.432;6.880;2023-07-31T12:14:26;28.00;47.70
12060;DHT22;6091;51.432;6.880;2023-07-31T12:16:57;28.00;47.70
12060;DHT22;6091;51.432;6.880;2023-07-31T12:19:26;28.00;47.60
12060;DHT22;6091;51.432;6.880;2023-07-31T12:21:58;28.00;47.80
12060;DHT22;6091;51.432;6.880;2023-07-31T12:24:27;28.00;47.60
12060;DHT22;6091;51.432;6.880;2023-07-31T12:26:54;27.90;47.60
12060;DHT22;6091;51.432;6.880;2023-07-31T12:29:22;27.90;47.60
12060;DHT22;6091;51.432;6.880;2023-07-31T12:31:49;27.90;47.60
12060;DHT22;6091;51.432;6.880;2023-07-31T12:34:19;27.90;47.60
12060;DHT22;6091;51.432;6.880;2023-07-31T12:36:49;27.90;47.60
12060;DHT22;6091;51.432;6.880;2023-07-31T12:39:19;27.90;47.60
12060;DHT22;6091;51.432;6.880;2023-07-31T12:41:46;27.90;47.60
12060;DHT22;6091;51.432;6.880;2023-07-31T12:44:13;27.90;47.70
12060;DHT22;6091;51.432;6.880;2023-07-31T12:46:40;27.90;47.60
12060;DHT22;6091;51.432;6.880;2023-07-31T12:49:07;27.90;47.70
12060;DHT22;6091;51.432;6.880;2023-07-31T12:51:34;27.90;47.70
12060;DHT22;6091;51.432;6.880;2023-07-31T12:54:02;27.90;47.70
12060;DHT22;6091;51.432;6.880;2023-07-31T12:56:29;27.90;47.60
12060;DHT22;6091;51.432;6.880;2023-07-31T12:58:56;27.90;47.60
12060;DHT22;6091;51.432;6.880;2023-07-31T13:01:23;27.90;47.70
12060;DHT22;6091;51.432;6.880;2023-07-31T13:03:50;27.90;47.70
12060;DHT22;6091;51.432;6.880;2023-07-31T13:06:17;27.90;47.70
12060;DHT22;6091;51.432;6.880;2023-07-31T13:08:44;27.90;47.60
12060;DHT22;6091;51.432;6.880;2023-07-31T13:11:11;27.90;47.60
12060;DHT22;6091;51.432;6.880;2023-07-31T13:13:38;27.90;47.70
12060;DHT22;6091;51.432;6.880;2023-07-31T13:16:06;27.90;47.60
12060;DHT22;6091;51.432;6.880;2023-07-31T13:18:33;27.90;47.70
12060;DHT22;6091;51.432;6.880;2023-07-31T13:21:00;27.90;47.70
12060;DHT22;6091;51.432;6.880;2023-07-31T13:23:27;27.90;47.70
12060;DHT22;6091;51.432;6.880;2023-07-31T13:25:54;27.90;47.70
12060;DHT22;6091;51.432;6.880;2023-07-31T13:28:22;27.90;47.70
12060;DHT22;6091;51.432;6.880;2023-07-31T13:30:49;27.90;47.80
12060;DHT22;6091;51.432;6.880;2023-07-31T13:33:16;28.00;47.80
12060;DHT22;6091;51.432;6.880;2023-07-31T13:36:00;28.00;47.80
12060;DHT22;6091;51.432;6.880;2023-07-31T13:38:27;28.00;47.90
12060;DHT22;6091;51.432;6.880;2023-07-31T13:40:54;28.00;47.80
12060;DHT22;6091;51.432;6.880;2023-07-31T13:43:21;28.00;47.80
12060;DHT22;6091;51.432;6.880;2023-07-31T13:45:48;28.00;47.80
12060;DHT22;6091;51.432;6.880;2023-07-31T13:48:27;28.00;47.70
12060;DHT22;6091;51.432;6.880;2023-07-31T13:50:57;28.00;47.80
12060;DHT22;6091;51.432;6.880;2023-07-31T13:53:24;28.00;47.70
12060;DHT22;6091;51.432;6.880;2023-07-31T13:55:53;28.00;47.70
12060;DHT22;6091;51.432;6.880;2023-07-31T13:58:21;28.00;47.70
12060;DHT22;6091;51.432;6.880;2023-07-31T14:00:48;28.00;47.70
12060;DHT22;6091;51.432;6.880;2023-07-31T14:03:15;28.00;47.80
12060;DHT22;6091;51.432;6.880;2023-07-31T14:05:42;28.00;47.80
12060;DHT22;6091;51.432;6.880;2023-07-31T14:08:09;28.00;47.80
12060;DHT22;6091;51.432;6.880;2023-07-31T14:10:36;28.00;47.80
12060;DHT22;6091;51.432;6.880;2023-07-31T14:13:03;28.00;47.80
12060;DHT22;6091;51.432;6.880;2023-07-31T14:15:30;28.10;47.90
12060;DHT22;6091;51.432;6.880;2023-07-31T14:17:59;28.10;47.90
12060;DHT22;6091;51.432;6.880;2023-07-31T14:20:28;28.10;47.80
12060;DHT22;6091;51.432;6.880;2023-07-31T14:22:56;28.10;47.80
12060;DHT22;6091;51.432;6.880;2023-07-31T14:25:23;28.10;47.80
12060;DHT22;6091;51.432;6.880;2023-07-31T14:27:50;28.10;47.80
12060;DHT22;6091;51.432;6.880;2023-07-31T14:30:17;28.10;47.80
12060;DHT22;6091;51.432;6.880;2023-07-31T14:32:45;28.10;47.70
12060;DHT22;6091;51.432;6.880;2023-07-31T14:35:13;28.10;47.80
12060;DHT22;6091;51.432;6.880;2023-07-31T14:37:42;28.10;47.70
12060;DHT22;6091;51.432;6.880;2023-07-31T14:40:12;28.10;47.70
12060;DHT22;6091;51.432;6.880;2023-07-31T14:42:40;28.80;48.20
12060;DHT22;6091;51.432;6.880;2023-07-31T14:45:07;28.10;47.70
12060;DHT22;6091;51.432;6.880;2023-07-31T14:47:37;28.10;47.70
12060;DHT22;6091;51.432;6.880;2023-07-31T14:50:04;28.10;47.80
12060;DHT22;6091;51.432;6.880;2023-07-31T14:52:32;28.10;47.70
12060;DHT22;6091;51.432;6.880;2023-07-31T14:55:00;28.10;47.70
12060;DHT22;6091;51.432;6.880;2023-07-31T14:57:27;28.10;47.70
12060;DHT22;6091;51.432;6.880;2023-07-31T14:59:54;28.00;47.70
12060;DHT22;6091;51.432;6.880;2023-07-31T15:02:21;28.10;47.80
12060;DHT22;6091;51.432;6.880;2023-07-31T15:04:48;28.00;47.70
12060;DHT22;6091;51.432;6.880;2023-07-31T15:07:15;28.00;47.70
12060;DHT22;6091;51.432;6.880;2023-07-31T15:09:43;28.00;47.80
12060;DHT22;6091;51.432;6.880;2023-07-31T15:12:10;28.00;47.80
12060;DHT22;6091;51.432;6.880;2023-07-31T15:14:37;28.00;47.80
12060;DHT22;6091;51.432;6.880;2023-07-31T15:17:05;28.00;47.80
12060;DHT22;6091;51.432;6.880;2023-07-31T15:19:32;28.00;47.80
12060;DHT22;6091;51.432;6.880;2023-07-31T15:22:05;28.00;47.80
12060;DHT22;6091;51.432;6.880;2023-07-31T15:24:32;28.00;47.80
12060;DHT22;6091;51.432;6.880;2023-07-31T15:26:59;28.00;47.80
12060;DHT22;6091;51.432;6.880;2023-07-31T15:29:30;27.90;47.80
12060;DHT22;6091;51.432;6.880;2023-07-31T15:31:57;27.90;47.80
12060;DHT22;6091;51.432;6.880;2023-07-31T15:34:26;27.90;47.80
12060;DHT22;6091;51.432;6.880;2023-07-31T15:36:53;27.90;47.80
12060;DHT22;6091;51.432;6.880;2023-07-31T15:39:21;27.90;47.80
12060;DHT22;6091;51.432;6.880;2023-07-31T15:41:48;27.90;47.80
12060;DHT22;6091;51.432;6.880;2023-07-31T15:44:15;27.90;47.80
12060;DHT22;6091;51.432;6.880;2023-07-31T15:46:42;27.90;47.80
12060;DHT22;6091;51.432;6.880;2023-07-31T15:49:10;27.90;47.80
12060;DHT22;6091;51.432;6.880;2023-07-31T15:51:37;27.90;47.80
12060;DHT22;6091;51.432;6.880;2023-07-31T15:54:04;27.90;47.80
12060;DHT22;6091;51.432;6.880;2023-07-31T15:56:31;27.90;47.80
12060;DHT22;6091;51.432;6.880;2023-07-31T15:58:58;27.90;47.80
12060;DHT22;6091;51.432;6.880;2023-07-31T16:01:28;27.90;47.70
12060;DHT22;6091;51.432;6.880;2023-07-31T16:03:55;27.90;47.80